CheckWX is a tool to help pilots better visualize weather data.  It is not intended as a substitute for an official pre-flight weather briefing.

15:59:17 UTC

RPLL TAF
Ninoy Aquino International Airport
Manila, Philippines
TAF RPLL 141100Z 1412/1518 11006KT 9999 FEW025 SCT100 TX31/1506Z TN26/1421Z TEMPO 1412/1418 10004KT FEW023CB BKN100 TEMPO 1418/1424 09003KT 8000 -SHRA SCT023 BKN090

Dec-14@
12:00 UTC

Dec-14 @ 12:00 UTC

Dec-15@
18:00 UTC

Dec-15 @ 18:00 UTC

TAF RPLL 141100Z 1412/1518 11006KT 9999 FEW025 SCT100 TX31/1506Z TN26/1421Z
Wind
  • 110° at 6 KTS
Cloud Levels
  • Few at 2,500' AGL
  • Scattered at 10,000' AGL

Dec-14@
12:00 UTC

Dec-14 @ 12:00 UTC

Dec-14@
18:00 UTC

Dec-14 @ 18:00 UTC

TEMPO 1412/1418 10004KT FEW023CB BKN100

Temporary

Temporary Changes expected for less than half the time period

Wind
  • 100° at 4 KTS
Cloud Levels
  • Few at 2,300' AGL
  • Broken at 10,000' AGL

Dec-14@
18:00 UTC

Dec-14 @ 18:00 UTC

Dec-15@
00:00 UTC

Dec-15 @ 00:00 UTC

TEMPO 1418/1424 09003KT 8000 -SHRA SCT023 BKN090

Temporary

Temporary Changes expected for less than half the time period

Wind
  • 090° at 3 KTS
Conditions
Light Rain
Cloud Levels
  • Scattered at 2,300' AGL
  • Broken at 9,000' AGL